Time;durP1;ratioP1;P1;durP2;ratioP2;P2;SDS_P1;SDS_P2;PMS_P1;PMS_P2;Temp;Humidity;BMP_temperature;BMP_pressure;BME280_temperature;BME280_humidity;BME280_pressure;Samples;Min_cycle;Max_cycle;Signal;HPM_P1;HPM_P2
2021/07/10 00:00:37;;;;;;;3.05;2.75;;;;;;;15.96;68.33;96730.03;5052937;28;20040;-64
2021/07/10 00:03:03;;;;;;;4.22;2.60;;;;;;;16.00;68.56;96718.34;5053000;28;20492;-61
2021/07/10 00:05:29;;;;;;;5.85;3.03;;;;;;;15.98;68.40;96728.13;5053014;28;20501;-64
2021/07/10 00:07:55;;;;;;;3.88;3.30;;;;;;;15.92;68.31;96729.31;5052962;28;20025;-60
2021/07/10 00:10:21;;;;;;;4.85;2.70;;;;;;;15.88;68.55;96730.41;5053133;28;20025;-63
2021/07/10 00:12:47;;;;;;;6.55;3.35;;;;;;;15.90;68.97;96735.63;5052916;28;20025;-62
2021/07/10 00:15:16;;;;;;;5.70;2.97;;;;;;;15.91;68.38;96727.63;5052993;28;20033;-61
2021/07/10 00:17:42;;;;;;;5.93;2.97;;;;;;;15.88;69.04;96725.16;5053029;28;20072;-64
2021/07/10 00:20:09;;;;;;;3.47;3.00;;;;;;;15.90;68.89;96719.78;5052855;28;20025;-62
2021/07/10 00:22:34;;;;;;;5.07;3.05;;;;;;;15.90;68.77;96717.16;5052890;28;20099;-63
2021/07/10 00:25:04;;;;;;;3.28;2.60;;;;;;;15.92;68.25;96724.03;5052786;28;20466;-61
2021/07/10 00:27:29;;;;;;;3.45;3.15;;;;;;;15.86;68.42;96715.63;5052729;28;20025;-63
2021/07/10 00:29:55;;;;;;;5.32;3.30;;;;;;;15.76;68.52;96707.38;5052797;28;20025;-60
2021/07/10 00:32:20;;;;;;;3.15;2.78;;;;;;;15.74;68.90;96710.09;5052868;28;20473;-62
2021/07/10 00:34:46;;;;;;;3.47;2.92;;;;;;;15.70;68.82;96703.28;5052734;28;20032;-64
2021/07/10 00:37:11;;;;;;;4.30;3.47;;;;;;;15.73;69.20;96703.13;5052623;28;20467;-62
2021/07/10 00:39:37;;;;;;;3.65;3.17;;;;;;;15.70;69.17;96702.44;5052610;28;20021;-61
2021/07/10 00:42:03;;;;;;;7.40;3.08;;;;;;;15.63;69.38;96697.50;5052613;28;20017;-62
2021/07/10 00:44:28;;;;;;;5.72;3.25;;;;;;;15.68;68.85;96694.59;5052572;28;20103;-60
2021/07/10 00:46:54;;;;;;;3.33;2.95;;;;;;;15.66;68.87;96697.31;5052908;28;20494;-62
2021/07/10 00:49:19;;;;;;;3.40;3.00;;;;;;;15.62;69.24;96694.97;5052307;28;20065;-60
2021/07/10 00:51:45;;;;;;;3.72;2.92;;;;;;;15.53;69.24;96685.78;5052621;28;20876;-62
2021/07/10 00:54:11;;;;;;;3.42;2.90;;;;;;;15.47;69.67;96684.34;5052548;28;20044;-65
2021/07/10 00:56:37;;;;;;;3.67;3.15;;;;;;;15.43;69.92;96676.69;5052557;28;20096;-64
2021/07/10 00:59:03;;;;;;;4.68;3.15;;;;;;;15.46;69.96;96668.59;5052601;28;20535;-64
2021/07/10 01:01:29;;;;;;;3.53;3.05;;;;;;;15.48;69.95;96672.88;5052404;28;20406;-63
2021/07/10 01:03:54;;;;;;;7.45;3.28;;;;;;;15.42;70.16;96673.22;5051229;28;20396;-61
2021/07/10 01:06:20;;;;;;;3.35;3.00;;;;;;;15.46;69.88;96671.25;5052569;28;20021;-65
2021/07/10 01:08:47;;;;;;;4.20;3.22;;;;;;;15.46;69.60;96674.72;5052514;28;20032;-62
2021/07/10 01:11:16;;;;;;;5.57;2.58;;;;;;;15.47;69.78;96667.69;5055695;28;20028;-61
2021/07/10 01:13:42;;;;;;;4.40;3.53;;;;;;;15.45;69.56;96664.28;5055967;28;20021;-63
2021/07/10 01:16:08;;;;;;;3.42;3.10;;;;;;;15.39;69.86;96662.84;5056015;28;20035;-64
2021/07/10 01:18:34;;;;;;;4.72;3.47;;;;;;;15.43;70.02;96667.00;5056008;28;20066;-61
2021/07/10 01:21:00;;;;;;;4.60;3.08;;;;;;;15.41;70.08;96658.31;5055879;28;20211;-60
2021/07/10 01:23:26;;;;;;;6.07;3.17;;;;;;;15.46;69.95;96661.56;5055982;28;20033;-64
2021/07/10 01:25:52;;;;;;;3.85;3.03;;;;;;;15.44;69.58;96652.88;5055756;28;20104;-65
2021/07/10 01:28:19;;;;;;;4.63;3.40;;;;;;;15.39;69.60;96652.28;5055748;28;20033;-60
2021/07/10 01:30:46;;;;;;;8.13;3.28;;;;;;;15.35;70.00;96648.13;5055676;28;20017;-65
2021/07/10 01:33:12;;;;;;;4.07;2.97;;;;;;;15.30;70.38;96648.38;5055717;28;20103;-61
2021/07/10 01:35:39;;;;;;;4.25;3.53;;;;;;;15.32;70.43;96643.03;5055625;28;20082;-60
2021/07/10 01:38:07;;;;;;;6.60;3.30;;;;;;;15.34;70.77;96642.00;5055636;28;20483;-60
2021/07/10 01:40:33;;;;;;;4.50;3.30;;;;;;;15.37;70.67;96638.34;5055563;28;20032;-62
2021/07/10 01:43:03;;;;;;;4.78;3.72;;;;;;;15.29;71.63;96633.50;5055569;28;20044;-63
2021/07/10 01:45:30;;;;;;;4.38;3.90;;;;;;;15.26;71.70;96631.88;5055668;28;20024;-62
2021/07/10 01:47:56;;;;;;;5.03;3.83;;;;;;;15.26;71.50;96628.41;5055436;28;20033;-63
2021/07/10 01:50:22;;;;;;;5.47;3.50;;;;;;;15.24;71.29;96625.88;5055183;28;20044;-64
2021/07/10 01:52:48;;;;;;;4.72;4.03;;;;;;;15.24;71.37;96625.88;5055358;28;20025;-65
2021/07/10 01:55:15;;;;;;;5.78;3.33;;;;;;;15.19;72.01;96624.41;5055326;28;20532;-61
2021/07/10 01:57:46;;;;;;;5.32;3.97;;;;;;;15.20;71.88;96632.22;5055373;28;20128;-62
2021/07/10 02:00:15;;;;;;;5.18;3.60;;;;;;;15.22;72.03;96634.78;5055137;28;20025;-65
2021/07/10 02:02:42;;;;;;;4.93;4.13;;;;;;;15.29;71.65;96626.44;5055178;28;20074;-63
2021/07/10 02:05:09;;;;;;;5.63;3.63;;;;;;;15.32;71.31;96627.22;5055091;28;20025;-63
2021/07/10 02:07:36;;;;;;;4.10;3.67;;;;;;;15.28;71.25;96623.91;5055095;28;20029;-62
2021/07/10 02:10:04;;;;;;;4.20;3.70;;;;;;;15.29;71.71;96622.94;5055096;28;20067;-62
2021/07/10 02:12:29;;;;;;;5.30;3.90;;;;;;;15.31;71.49;96623.72;5053776;28;20056;-61
2021/07/10 02:14:55;;;;;;;5.15;4.03;;;;;;;15.26;72.04;96623.16;5054903;28;20114;-65
2021/07/10 02:17:20;;;;;;;5.72;4.03;;;;;;;15.22;71.57;96616.31;5054894;28;20028;-64
2021/07/10 02:19:46;;;;;;;5.55;4.28;;;;;;;15.19;71.99;96619.13;5054767;28;20029;-66
2021/07/10 02:22:12;;;;;;;5.03;4.30;;;;;;;15.22;72.03;96618.97;5054153;28;20475;-64
2021/07/10 02:24:37;;;;;;;4.55;3.90;;;;;;;15.20;71.73;96618.22;5054716;28;20055;-64
2021/07/10 02:27:03;;;;;;;4.85;4.20;;;;;;;15.20;71.97;96620.84;5054803;28;20378;-66
2021/07/10 02:29:29;;;;;;;4.90;3.63;;;;;;;15.23;71.96;96626.78;5054677;28;20017;-62
2021/07/10 02:31:54;;;;;;;4.80;4.40;;;;;;;15.21;72.10;96617.28;5054585;28;20033;-62
2021/07/10 02:34:20;;;;;;;6.70;4.18;;;;;;;15.21;72.28;96625.19;5054633;28;20021;-62
2021/07/10 02:36:46;;;;;;;7.22;4.38;;;;;;;15.26;71.86;96609.97;5054508;28;20487;-60
2021/07/10 02:39:12;;;;;;;5.20;4.53;;;;;;;15.25;71.88;96617.03;5054406;28;20497;-62
2021/07/10 02:41:38;;;;;;;5.00;4.50;;;;;;;15.27;71.87;96607.22;5054264;28;20029;-65
2021/07/10 02:44:05;;;;;;;7.18;4.20;;;;;;;15.34;71.87;96610.38;5054565;28;20025;-60
2021/07/10 02:46:31;;;;;;;5.68;4.05;;;;;;;15.37;71.75;96611.97;5054303;28;20482;-61
2021/07/10 02:48:58;;;;;;;4.68;3.95;;;;;;;15.38;71.46;96613.72;5054005;28;20105;-60
2021/07/10 02:51:27;;;;;;;4.95;3.42;;;;;;;15.38;71.64;96604.00;5054208;28;20099;-64
2021/07/10 02:53:54;;;;;;;6.55;4.60;;;;;;;15.40;71.71;96609.19;5054117;28;20021;-62
2021/07/10 02:56:24;;;;;;;5.55;4.10;;;;;;;15.43;71.71;96608.16;5054023;28;20536;-65
2021/07/10 02:58:50;;;;;;;7.63;4.35;;;;;;;15.43;71.73;96614.28;5054137;28;20025;-62
2021/07/10 03:01:16;;;;;;;5.78;4.32;;;;;;;15.37;71.52;96611.97;5053871;28;20060;-66
2021/07/10 03:03:41;;;;;;;9.10;4.43;;;;;;;15.36;71.83;96605.03;5053935;28;20482;-63
2021/07/10 03:06:07;;;;;;;4.97;4.50;;;;;;;15.42;72.61;96607.31;5053951;28;20036;-63
2021/07/10 03:08:32;;;;;;;6.30;4.50;;;;;;;15.49;71.83;96605.16;5053935;28;20028;-66
2021/07/10 03:10:58;;;;;;;12.18;4.72;;;;;;;15.48;71.64;96606.97;5053759;28;20040;-62
2021/07/10 03:13:24;;;;;;;10.07;4.72;;;;;;;15.53;71.79;96604.91;5053809;28;20029;-61
2021/07/10 03:15:50;;;;;;;6.22;4.32;;;;;;;15.57;71.81;96610.88;5053733;28;20099;-62
2021/07/10 03:18:15;;;;;;;6.78;4.60;;;;;;;15.64;71.72;96606.09;5053717;28;20151;-61
2021/07/10 03:20:41;;;;;;;7.88;5.20;;;;;;;15.67;71.71;96611.19;5053637;28;20087;-63
2021/07/10 03:23:07;;;;;;;5.45;4.43;;;;;;;15.66;71.55;96604.22;5053642;28;20040;-63
2021/07/10 03:25:33;;;;;;;4.53;4.10;;;;;;;15.68;71.70;96598.84;5053556;28;20021;-64
2021/07/10 03:28:00;;;;;;;7.65;4.65;;;;;;;15.76;71.76;96608.03;5053471;28;20541;-63
2021/07/10 03:30:27;;;;;;;7.30;4.78;;;;;;;15.80;71.81;96600.75;5053511;28;20096;-64
2021/07/10 03:32:53;;;;;;;4.60;4.18;;;;;;;15.82;71.60;96605.94;5052811;28;20028;-63
2021/07/10 03:35:20;;;;;;;7.03;4.22;;;;;;;16.02;71.06;96608.28;5053095;28;20021;-63
2021/07/10 03:37:47;;;;;;;4.97;3.67;;;;;;;16.24;70.36;96606.19;5053317;28;20442;-65
2021/07/10 03:40:15;;;;;;;4.05;3.40;;;;;;;16.53;69.78;96604.41;5053335;28;20036;-65
2021/07/10 03:42:41;;;;;;;3.65;3.35;;;;;;;16.89;69.10;96604.03;5053499;28;20048;-62
2021/07/10 03:45:09;;;;;;;4.20;3.80;;;;;;;17.30;68.40;96608.50;5053251;28;20360;-62
2021/07/10 03:47:35;;;;;;;5.97;3.72;;;;;;;17.70;67.18;96606.00;5053159;28;20021;-62
2021/07/10 03:50:00;;;;;;;6.43;3.20;;;;;;;18.07;64.93;96603.53;5052950;28;20448;-62
2021/07/10 03:52:26;;;;;;;5.28;3.40;;;;;;;18.46;64.61;96602.75;5053132;28;20021;-65
2021/07/10 03:54:52;;;;;;;5.47;3.80;;;;;;;18.89;63.64;96604.19;5053282;28;20033;-65
2021/07/10 03:57:17;;;;;;;5.80;3.45;;;;;;;19.28;62.14;96609.41;5053078;28;20029;-61
2021/07/10 03:59:43;;;;;;;3.83;2.85;;;;;;;19.68;61.56;96614.47;5053070;28;20370;-64
2021/07/10 04:02:08;;;;;;;3.13;2.83;;;;;;;20.07;60.33;96606.31;5053048;28;20028;-66
2021/07/10 04:04:34;;;;;;;3.00;2.63;;;;;;;20.40;59.53;96603.84;5053203;28;20029;-63
2021/07/10 04:07:00;;;;;;;3.97;2.83;;;;;;;20.76;59.06;96601.09;5053286;28;20029;-66
2021/07/10 04:09:25;;;;;;;4.78;2.60;;;;;;;21.08;58.46;96603.03;5052906;28;20020;-62
2021/07/10 04:11:51;;;;;;;5.40;3.20;;;;;;;21.44;57.06;96600.19;5052888;28;20021;-62
2021/07/10 04:14:16;;;;;;;3.75;2.75;;;;;;;21.75;56.26;96599.50;5052976;28;20017;-66
2021/07/10 04:16:42;;;;;;;4.75;2.65;;;;;;;22.05;55.85;96591.75;5052932;28;20021;-63
2021/07/10 04:19:07;;;;;;;2.97;2.70;;;;;;;22.38;55.16;96595.19;5052877;28;20032;-68
2021/07/10 04:21:33;;;;;;;7.15;3.13;;;;;;;22.64;54.47;96588.63;5052713;28;20025;-64
2021/07/10 04:23:59;;;;;;;3.75;2.50;;;;;;;22.93;54.61;96588.72;5052984;28;20471;-66
2021/07/10 04:26:24;;;;;;;4.20;2.60;;;;;;;23.38;53.55;96586.63;5052896;28;20036;-64
2021/07/10 04:28:50;;;;;;;5.20;2.75;;;;;;;23.68;52.62;96591.97;5052789;28;20032;-61
2021/07/10 04:31:15;;;;;;;5.65;2.90;;;;;;;23.85;52.49;96591.31;5052905;28;20419;-63
2021/07/10 04:33:41;;;;;;;4.55;2.60;;;;;;;24.16;52.01;96582.31;5052838;28;20025;-62
2021/07/10 04:36:07;;;;;;;3.08;2.30;;;;;;;24.52;51.50;96583.47;5052671;28;20487;-63
2021/07/10 04:38:37;;;;;;;3.35;2.28;;;;;;;24.79;50.80;96573.81;5052801;28;20107;-63
2021/07/10 04:41:03;;;;;;;3.72;2.60;;;;;;;25.06;50.51;96573.03;5052737;28;20086;-66
2021/07/10 04:43:29;;;;;;;3.10;2.70;;;;;;;25.38;49.87;96576.22;5051429;28;20090;-66
2021/07/10 04:45:56;;;;;;;3.90;2.50;;;;;;;25.69;49.72;96577.69;5055440;28;20546;-63
2021/07/10 04:48:21;;;;;;;9.23;2.38;;;;;;;25.91;48.65;96584.44;5056478;28;20075;-62
2021/07/10 04:50:47;;;;;;;5.28;2.60;;;;;;;26.17;49.00;96580.97;5056342;28;20115;-65
2021/07/10 04:53:13;;;;;;;3.28;2.30;;;;;;;26.41;49.01;96582.16;5056566;28;20056;-64
2021/07/10 04:55:38;;;;;;;4.88;2.10;;;;;;;26.72;48.57;96584.34;5056392;28;20048;-62
2021/07/10 04:58:04;;;;;;;4.72;2.78;;;;;;;26.97;48.32;96578.25;5056376;28;20025;-68
2021/07/10 05:00:29;;;;;;;4.25;2.30;;;;;;;27.23;47.97;96585.41;5056196;28;20025;-69
2021/07/10 05:02:55;;;;;;;4.07;2.20;;;;;;;27.41;46.62;96581.78;5056320;28;20056;-64
2021/07/10 05:05:20;;;;;;;3.97;2.20;;;;;;;27.64;46.21;96582.00;5056317;28;20017;-65
2021/07/10 05:07:46;;;;;;;7.03;2.60;;;;;;;27.80;45.62;96586.56;5056439;28;20100;-67
2021/07/10 05:10:12;;;;;;;4.38;2.65;;;;;;;27.98;44.82;96583.72;5056282;28;20078;-63
2021/07/10 05:12:38;;;;;;;6.53;2.33;;;;;;;28.23;45.79;96578.34;5056170;28;20021;-67
2021/07/10 05:15:05;;;;;;;3.13;2.45;;;;;;;28.51;44.63;96590.63;5055965;28;20035;-64
2021/07/10 05:17:30;;;;;;;2.47;2.25;;;;;;;28.71;45.23;96585.69;5056130;28;20104;-61
2021/07/10 05:19:56;;;;;;;4.13;2.05;;;;;;;28.96;44.95;96585.63;5055880;28;20132;-63
2021/07/10 05:22:22;;;;;;;3.03;2.20;;;;;;;29.13;45.18;96586.41;5056003;28;20032;-65
2021/07/10 05:24:47;;;;;;;5.63;2.40;;;;;;;29.39;44.64;96587.13;5055858;28;20040;-66
2021/07/10 05:27:13;;;;;;;4.03;2.58;;;;;;;29.63;43.25;96586.16;5055893;28;20025;-66
2021/07/10 05:29:38;;;;;;;5.05;2.60;;;;;;;29.85;43.71;96598.97;5055902;28;20466;-66
2021/07/10 05:32:04;;;;;;;4.07;2.50;;;;;;;30.09;42.68;96597.94;5055796;28;20090;-68
2021/07/10 05:34:30;;;;;;;2.97;2.30;;;;;;;30.37;42.81;96596.56;5055648;28;20564;-63
2021/07/10 05:36:56;;;;;;;4.68;2.78;;;;;;;30.62;41.71;96594.47;5055732;28;20029;-69
2021/07/10 05:39:21;;;;;;;3.17;2.03;;;;;;;30.82;42.31;96604.72;5055862;28;20485;-67
2021/07/10 05:41:47;;;;;;;4.97;2.22;;;;;;;31.00;40.26;96600.81;5055501;28;20400;-68
2021/07/10 05:44:13;;;;;;;4.05;2.45;;;;;;;31.11;41.22;96603.03;5055593;28;20106;-67
2021/07/10 05:46:38;;;;;;;6.30;2.45;;;;;;;31.31;38.58;96605.16;5055420;28;20021;-64
2021/07/10 05:49:04;;;;;;;4.05;2.30;;;;;;;31.22;38.71;96606.28;5055182;28;20031;-66
2021/07/10 05:51:30;;;;;;;6.70;2.53;;;;;;;31.26;37.47;96605.72;5055405;28;20480;-68
2021/07/10 05:53:55;;;;;;;4.07;2.20;;;;;;;31.42;37.48;96603.84;5055464;28;20021;-63
2021/07/10 05:56:21;;;;;;;3.80;2.40;;;;;;;31.57;38.31;96606.50;5054222;28;20471;-65
2021/07/10 05:58:47;;;;;;;8.52;2.38;;;;;;;31.81;38.47;96609.06;5055294;28;20028;-64
2021/07/10 06:01:13;;;;;;;9.02;2.53;;;;;;;31.98;38.10;96598.84;5055071;28;20029;-66
2021/07/10 06:03:38;;;;;;;2.35;2.15;;;;;;;32.17;39.79;96599.25;5055165;28;20044;-63
2021/07/10 06:06:04;;;;;;;3.50;2.35;;;;;;;32.45;38.29;96590.28;5055140;28;20032;-62
2021/07/10 06:08:29;;;;;;;5.13;2.33;;;;;;;32.36;35.74;96600.44;5055048;28;20027;-64
2021/07/10 06:10:55;;;;;;;4.35;2.20;;;;;;;32.50;36.98;96595.97;5055018;28;20032;-66
2021/07/10 06:13:21;;;;;;;5.53;1.83;;;;;;;32.75;37.48;96595.53;5054943;28;20025;-66
2021/07/10 06:15:47;;;;;;;4.13;2.20;;;;;;;33.03;35.83;96597.34;5054974;28;20025;-65
2021/07/10 06:18:13;;;;;;;7.47;2.50;;;;;;;33.01;36.19;96600.25;5054989;28;20412;-65
2021/07/10 06:20:39;;;;;;;3.72;2.17;;;;;;;33.19;35.78;96600.78;5054641;28;20032;-66
2021/07/10 06:23:06;;;;;;;10.70;3.25;;;;;;;33.33;36.51;96594.38;5054821;28;20024;-67
2021/07/10 06:25:37;;;;;;;2.95;2.30;;;;;;;33.49;36.43;96597.75;5054662;28;20053;-64
2021/07/10 06:28:07;;;;;;;4.90;2.45;;;;;;;33.39;35.14;96595.44;5054754;28;20166;-64
2021/07/10 06:30:33;;;;;;;5.78;2.25;;;;;;;33.26;34.98;96594.34;5054649;28;20059;-62
2021/07/10 06:33:00;;;;;;;2.42;2.22;;;;;;;33.21;35.27;96596.00;5054561;28;20037;-63
2021/07/10 06:35:26;;;;;;;3.50;2.65;;;;;;;32.82;33.17;96593.69;5054620;28;20467;-63
2021/07/10 06:37:51;;;;;;;3.58;2.00;;;;;;;32.59;34.31;96589.38;5054855;28;20033;-63
2021/07/10 06:40:18;;;;;;;4.03;2.28;;;;;;;32.64;34.25;96592.34;5054401;28;20028;-61
2021/07/10 06:42:44;;;;;;;6.95;2.40;;;;;;;32.67;35.23;96593.81;5054469;28;20044;-65
2021/07/10 06:45:12;;;;;;;5.45;2.40;;;;;;;32.43;32.74;96595.91;5054439;28;20116;-66
2021/07/10 06:47:38;;;;;;;5.07;2.22;;;;;;;32.24;33.44;96592.81;5054252;28;20429;-66
2021/07/10 06:50:06;;;;;;;2.17;1.98;;;;;;;32.07;31.76;96594.13;5053976;28;20049;-65
2021/07/10 06:52:31;;;;;;;7.22;2.10;;;;;;;31.37;33.83;96592.78;5054323;28;20031;-66
2021/07/10 06:54:57;;;;;;;4.00;2.00;;;;;;;31.13;33.96;96589.34;5054272;28;20017;-65
2021/07/10 06:57:23;;;;;;;2.80;2.25;;;;;;;30.69;33.96;96596.41;5054053;28;20063;-66
2021/07/10 06:59:48;;;;;;;3.25;2.05;;;;;;;30.33;34.93;96587.13;5054037;28;20029;-64
2021/07/10 07:02:14;;;;;;;2.40;2.20;;;;;;;30.12;35.60;96599.44;5054019;28;20017;-62
2021/07/10 07:04:40;;;;;;;4.35;2.35;;;;;;;30.02;34.25;96594.31;5054063;28;20057;-66
2021/07/10 07:07:06;;;;;;;5.70;2.25;;;;;;;29.84;34.77;96603.53;5053788;28;20426;-63
2021/07/10 07:09:32;;;;;;;4.75;2.38;;;;;;;29.71;35.81;96612.19;5053871;28;20040;-63
2021/07/10 07:11:57;;;;;;;3.95;2.20;;;;;;;29.81;36.73;96606.59;5053793;28;20021;-65
2021/07/10 07:14:23;;;;;;;5.10;2.53;;;;;;;29.46;37.49;96606.09;5053742;28;20028;-67
2021/07/10 07:16:48;;;;;;;4.10;2.25;;;;;;;29.20;38.28;96613.44;5053830;28;20028;-65
2021/07/10 07:19:14;;;;;;;3.22;2.30;;;;;;;28.84;40.74;96614.72;5053738;28;20482;-64
2021/07/10 07:21:40;;;;;;;8.82;2.60;;;;;;;29.10;41.39;96604.75;5053692;28;20074;-63
2021/07/10 07:24:06;;;;;;;5.28;2.97;;;;;;;29.20;39.88;96610.75;5053579;28;20025;-63
2021/07/10 07:26:33;;;;;;;4.20;2.60;;;;;;;28.92;38.10;96621.13;5053641;28;20477;-62
2021/07/10 07:28:59;;;;;;;7.78;2.97;;;;;;;28.43;38.53;96623.72;5053491;28;20017;-65
2021/07/10 07:31:24;;;;;;;9.98;2.55;;;;;;;28.18;39.92;96620.19;5053606;28;20017;-61
2021/07/10 07:33:50;;;;;;;3.55;2.60;;;;;;;27.80;38.33;96610.75;5053580;28;20082;-63
2021/07/10 07:36:15;;;;;;;3.67;3.05;;;;;;;27.81;39.87;96620.50;5053426;28;20017;-64
2021/07/10 07:38:41;;;;;;;8.77;2.80;;;;;;;27.86;40.71;96620.00;5053504;28;20036;-64
2021/07/10 07:41:07;;;;;;;3.53;2.88;;;;;;;28.44;41.04;96624.56;5053399;28;20025;-63
2021/07/10 07:43:33;;;;;;;3.60;2.50;;;;;;;28.77;37.98;96619.13;5053513;28;20055;-62
2021/07/10 07:45:58;;;;;;;3.58;2.90;;;;;;;28.54;38.82;96627.94;5053286;28;20053;-67
2021/07/10 07:48:24;;;;;;;4.18;2.40;;;;;;;28.38;37.50;96626.06;5052002;28;20021;-66
2021/07/10 07:50:50;;;;;;;5.65;2.80;;;;;;;28.32;40.78;96632.16;5053017;28;20049;-63
2021/07/10 07:53:18;;;;;;;2.75;2.47;;;;;;;28.78;40.47;96630.72;5053134;28;20135;-65
2021/07/10 07:55:44;;;;;;;6.80;2.83;;;;;;;29.13;36.98;96623.25;5053085;28;20029;-63
2021/07/10 07:58:10;;;;;;;3.13;2.60;;;;;;;29.05;37.04;96618.75;5053044;28;20025;-64
2021/07/10 08:00:35;;;;;;;4.25;2.47;;;;;;;28.93;36.72;96623.66;5053070;28;20107;-63
2021/07/10 08:03:01;;;;;;;4.20;2.05;;;;;;;29.21;39.54;96622.38;5052994;28;20025;-65
2021/07/10 08:05:26;;;;;;;5.65;2.33;;;;;;;29.66;38.35;96617.28;5052993;28;20025;-63
2021/07/10 08:07:53;;;;;;;7.03;2.88;;;;;;;29.69;36.42;96616.09;5053041;28;20379;-62
2021/07/10 08:10:18;;;;;;;4.40;2.10;;;;;;;29.76;36.07;96619.75;5053002;28;20074;-66
2021/07/10 08:12:47;;;;;;;6.30;2.70;;;;;;;29.61;35.53;96619.66;5052900;28;20032;-64
2021/07/10 08:15:14;;;;;;;5.10;2.42;;;;;;;29.21;36.47;96614.28;5052907;28;20044;-64
2021/07/10 08:17:41;;;;;;;3.15;2.67;;;;;;;28.93;37.74;96609.34;5053047;28;20032;-65
2021/07/10 08:20:07;;;;;;;5.03;2.80;;;;;;;28.92;37.65;96608.47;5054433;28;20050;-64
2021/07/10 08:22:33;;;;;;;5.03;2.67;;;;;;;29.05;37.89;96610.69;5056982;28;20021;-64
2021/07/10 08:24:59;;;;;;;4.93;2.85;;;;;;;29.23;37.67;96609.59;5057037;28;20017;-63
2021/07/10 08:27:24;;;;;;;5.72;2.85;;;;;;;29.32;38.09;96603.16;5057019;28;20437;-66
2021/07/10 08:29:50;;;;;;;4.07;2.92;;;;;;;29.55;39.05;96605.06;5056895;28;20487;-65
2021/07/10 08:32:15;;;;;;;3.88;2.60;;;;;;;29.91;40.25;96606.34;5056844;28;20033;-63
2021/07/10 08:34:41;;;;;;;6.82;3.13;;;;;;;30.18;36.05;96603.28;5057028;28;20063;-66
2021/07/10 08:37:07;;;;;;;3.30;2.50;;;;;;;30.30;35.10;96606.38;5056949;28;20047;-63
2021/07/10 08:39:32;;;;;;;6.10;2.75;;;;;;;30.43;35.83;96603.09;5056778;28;20021;-64
2021/07/10 08:41:59;;;;;;;4.28;2.15;;;;;;;30.11;32.74;96612.09;5056698;28;20025;-64
2021/07/10 08:44:26;;;;;;;3.90;2.33;;;;;;;30.08;37.94;96598.13;5056722;28;20021;-66
2021/07/10 08:46:52;;;;;;;3.42;2.28;;;;;;;30.36;33.58;96597.56;5056719;28;20017;-63
2021/07/10 08:49:18;;;;;;;5.05;2.72;;;;;;;30.48;33.04;96601.50;5056284;28;20045;-64
2021/07/10 08:51:46;;;;;;;4.22;2.10;;;;;;;30.73;34.12;96598.53;5056543;28;20506;-62
2021/07/10 08:54:12;;;;;;;6.03;2.10;;;;;;;31.16;35.54;96597.09;5056497;28;20056;-67
2021/07/10 08:56:38;;;;;;;7.97;2.55;;;;;;;31.19;31.82;96603.97;5056489;28;20028;-61
2021/07/10 08:59:04;;;;;;;3.10;2.00;;;;;;;30.84;32.38;96599.13;5056420;28;20017;-64
2021/07/10 09:01:29;;;;;;;3.45;1.90;;;;;;;30.82;33.25;96612.00;5056252;28;20022;-65
2021/07/10 09:03:55;;;;;;;5.38;2.28;;;;;;;30.32;31.63;96598.97;5056215;28;20021;-66
2021/07/10 09:06:20;;;;;;;3.53;2.10;;;;;;;29.92;32.07;96601.78;5056384;28;20025;-65
2021/07/10 09:09:04;;;;;;;7.03;2.08;;;;;;;29.51;31.90;96598.31;5056139;28;20419;-66
2021/07/10 09:11:30;;;;;;;3.83;1.70;;;;;;;29.28;31.27;96600.97;5056219;28;20087;-61
2021/07/10 09:13:56;;;;;;;2.35;1.85;;;;;;;28.96;31.62;96603.63;5056020;28;20116;-64
2021/07/10 09:16:29;;;;;;;2.78;1.83;;;;;;;28.91;33.63;96595.19;5056107;28;20025;-64
2021/07/10 09:18:59;;;;;;;2.65;1.95;;;;;;;28.87;32.75;96603.63;5056021;28;20048;-63
2021/07/10 09:21:45;;;;;;;2.38;1.80;;;;;;;29.19;33.61;96598.31;5055908;28;20040;-64
2021/07/10 09:24:16;;;;;;;5.57;1.90;;;;;;;29.42;31.74;96588.59;5055973;28;20029;-65
2021/07/10 09:26:50;;;;;;;2.90;1.70;;;;;;;29.75;34.66;96591.13;5056021;28;20090;-65
2021/07/10 09:29:20;;;;;;;2.90;1.90;;;;;;;29.89;30.83;96587.66;5056008;28;20044;-66
2021/07/10 09:31:56;;;;;;;3.03;1.90;;;;;;;29.93;31.88;96582.75;5055871;28;20402;-63
2021/07/10 09:34:30;;;;;;;7.13;2.25;;;;;;;30.04;33.34;96580.66;5055776;28;20056;-62
2021/07/10 09:36:58;;;;;;;4.65;1.95;;;;;;;29.59;30.33;96590.22;5055809;28;20379;-66
2021/07/10 09:39:28;;;;;;;3.97;1.75;;;;;;;29.12;32.05;96590.13;5055597;28;20017;-65
2021/07/10 09:41:54;;;;;;;3.72;1.98;;;;;;;28.86;30.42;96576.88;5055619;28;20025;-64
2021/07/10 09:44:20;;;;;;;3.15;1.75;;;;;;;28.85;31.09;96576.06;5055662;28;20032;-62
2021/07/10 09:46:46;;;;;;;2.70;2.00;;;;;;;29.05;33.52;96581.06;5055609;28;20359;-65
2021/07/10 09:49:30;;;;;;;2.10;1.77;;;;;;;29.36;32.35;96577.53;5055148;28;20021;-66
2021/07/10 09:52:09;;;;;;;4.75;1.60;;;;;;;29.51;33.73;96582.16;5055506;28;20033;-60
2021/07/10 09:54:48;;;;;;;2.75;1.85;;;;;;;29.73;32.29;96574.28;5055343;28;20025;-60
2021/07/10 09:57:22;;;;;;;2.00;1.80;;;;;;;30.04;33.68;96568.00;5055403;28;20078;-67
2021/07/10 09:59:53;;;;;;;2.97;1.85;;;;;;;30.10;31.34;96571.84;5055445;28;20033;-63
2021/07/10 10:02:21;;;;;;;9.63;2.17;;;;;;;29.99;30.95;96570.41;5055330;28;20021;-68
2021/07/10 10:04:47;;;;;;;3.25;1.58;;;;;;;29.85;29.66;96572.88;5055195;28;20103;-65
2021/07/10 10:07:18;;;;;;;1.95;1.60;;;;;;;29.76;27.75;96565.84;5055173;28;20100;-62
2021/07/10 10:09:45;;;;;;;3.22;1.90;;;;;;;29.87;29.52;96568.13;5055123;28;20079;-68
2021/07/10 10:12:14;;;;;;;3.65;2.08;;;;;;;29.84;28.39;96562.25;5055004;28;20540;-64
2021/07/10 10:14:52;;;;;;;3.40;1.63;;;;;;;29.73;30.78;96564.38;5054872;28;20017;-65
2021/07/10 10:17:21;;;;;;;4.63;1.88;;;;;;;29.52;32.18;96555.03;5054947;28;20025;-63
2021/07/10 10:19:47;;;;;;;2.03;1.83;;;;;;;29.64;31.99;96557.34;5054800;28;20387;-69
2021/07/10 10:22:15;;;;;;;1.75;1.65;;;;;;;29.64;30.73;96558.19;5054863;28;20055;-65
2021/07/10 10:24:47;;;;;;;4.40;1.63;;;;;;;29.60;28.25;96551.50;5054920;28;20033;-66
2021/07/10 10:27:14;;;;;;;2.60;1.70;;;;;;;29.75;29.47;96548.00;5054787;28;20488;-67
2021/07/10 10:29:44;;;;;;;5.05;1.55;;;;;;;29.52;28.61;96555.03;5054742;28;20028;-64
2021/07/10 10:32:11;;;;;;;3.35;1.60;;;;;;;29.51;27.30;96547.16;5054657;28;20021;-63
2021/07/10 10:34:39;;;;;;;4.03;1.40;;;;;;;29.63;28.21;96550.28;5054684;28;20104;-67
2021/07/10 10:37:08;;;;;;;3.05;1.42;;;;;;;29.71;27.99;96544.84;5054651;28;20052;-62
2021/07/10 10:39:35;;;;;;;2.63;1.52;;;;;;;29.72;27.87;96541.13;5054561;28;20025;-68
2021/07/10 10:42:22;;;;;;;1.45;1.30;;;;;;;29.72;26.97;96543.84;5053979;28;20036;-66
2021/07/10 10:44:50;;;;;;;1.95;1.42;;;;;;;29.80;26.04;96540.25;5054433;28;20036;-67
2021/07/10 10:47:15;;;;;;;1.65;1.55;;;;;;;29.72;23.98;96543.84;5054414;28;20158;-64
2021/07/10 10:49:43;;;;;;;5.43;1.50;;;;;;;29.53;26.15;96539.72;5054068;28;20076;-62
2021/07/10 10:52:32;;;;;;;2.92;1.50;;;;;;;29.65;28.52;96542.88;5053114;28;20025;-65
2021/07/10 10:54:58;;;;;;;2.20;1.45;;;;;;;29.92;27.44;96535.25;5054116;28;20036;-63
2021/07/10 10:57:37;;;;;;;4.95;1.60;;;;;;;30.13;25.50;96537.25;5054219;28;20033;-65
2021/07/10 11:00:15;;;;;;;1.40;1.30;;;;;;;30.26;25.63;96538.50;5054100;28;20114;-62
2021/07/10 11:02:52;;;;;;;2.38;1.33;;;;;;;30.11;24.98;96533.06;5054139;28;20441;-64
2021/07/10 11:05:30;;;;;;;3.20;1.42;;;;;;;30.10;28.05;96528.69;5053995;28;20073;-61
2021/07/10 11:08:23;;;;;;;1.63;1.25;;;;;;;29.99;24.25;96532.66;5054066;28;20103;-65
2021/07/10 11:11:00;;;;;;;1.75;1.30;;;;;;;29.55;23.11;96528.78;5053941;28;20434;-67
2021/07/10 11:13:31;;;;;;;2.92;1.30;;;;;;;29.24;23.29;96528.63;5053983;28;20083;-62
2021/07/10 11:16:14;;;;;;;1.75;0.98;;;;;;;29.14;21.88;96518.06;5053826;28;20608;-63
2021/07/10 11:18:56;;;;;;;2.60;1.35;;;;;;;29.13;22.57;96520.94;5052477;28;20047;-61
2021/07/10 11:21:41;;;;;;;1.40;1.10;;;;;;;29.17;25.11;96524.13;5053649;28;20064;-68
2021/07/10 11:27:07;;;;;;;1.70;0.95;;;;;;;29.30;23.02;96526.22;5053637;28;20076;-63
2021/07/10 11:29:36;;;;;;;1.70;1.05;;;;;;;29.41;22.93;96517.75;5053524;28;20024;-65
2021/07/10 11:32:11;;;;;;;1.42;1.00;;;;;;;29.33;22.43;96528.56;5053701;28;20021;-65
2021/07/10 11:34:43;;;;;;;0.93;0.93;;;;;;;29.31;23.88;96514.47;5053460;28;20040;-64
2021/07/10 11:37:36;;;;;;;2.65;1.40;;;;;;;29.42;23.13;96507.81;5053701;28;20106;-67